Terminal Aerodrome Forecast
Issued by NWS

Home | Current Version | Previous Version | Text Only | Print | Product List | Glossary Off
Versions: 1 2 3 4 5 6 7 8 9 10 11 12 13 14 15 16 17 18 19 20

632
FTUS43 KDVN 290803 AAB
TAFCID
TAF AMD
KCID 290803Z 2908/3006 32007KT P6SM OVC005
     FM291500 35007KT P6SM BKN025
     FM291900 01011KT P6SM BKN035
     FM300000 35006KT P6SM BKN050=

USA.gov is the U.S. government's official web portal to all federal, state and local government web resources and services.